Strona główna
METAR-TAF:

METAR-TAF

Lotnisko :

Port lotniczy Szczecin-Goleniów

Szczecin, Polska

Szerokość geograficzna: 53-35N, Długość geograficzna: 014-54E, wysokość: 1 m

Aktualna obserwacja pogody

Raport powstał 25 minut temu, godzina 07:00 UTC
Wiatr 6 kt od wschodnio-północny wschód, zmienny między północ i wschodnio-południowy wschód
Temperatura 17°C
Wilgotność 55%
Ciśnienie 1022 hPa
Widzialność 10 km lub więcej
Brak chmur poniżej 1500 m i brak chmur cumulonimbus

METAR: EPSC 230700Z 07006KT 350V110 CAVOK 17/08 Q1022

czas: 09:25 (07:25 UTC)

Prognoza

Raport powstał 1 godzina i 55 minut temu, godzina 05:30 UTC
Prognoza ważna od 23 godzina 06 UTC do 24 godzina 06 UTC
Wiatr 8 kt od północny wschód
Widzialność 10 km lub więcej
Brak chmur poniżej 1500 m i brak chmur cumulonimbus

TAF: EPSC 230530Z 2306/2406 04008KT CAVOK

Obserwacja i prognoza pogody dla ponad 4000 lotnisk (raport METAR i TAF).

Dostępne stacje oznaczono żółtymi i czerwonymi punktami na mapie.

Najedź kursorem aby zobaczyć nazwę stacji.

Kliknij aby zobaczyć obserwacje i prognozy pogody.

Aby zmienić mapę: kliknij na zielony przycisk z czarnym krzyżykiem, aby powiększyć; na zielony przycisk z myślnikiem, aby pomniejszyć; na zielone strzałki, aby przejść do map sąsiednich.


METAR-TAF: